createdAt,value
2022-09-20T00:01:35.803Z,6.80
2022-09-20T00:04:06.915Z,6.30
2022-09-20T00:06:36.458Z,6.77
2022-09-20T00:09:06.500Z,7.00
2022-09-20T00:11:36.655Z,6.57
2022-09-20T00:14:09.253Z,6.83
2022-09-20T00:16:40.857Z,5.90
2022-09-20T00:19:10.400Z,5.63
2022-09-20T00:21:39.162Z,6.53
2022-09-20T00:24:08.094Z,7.00
2022-09-20T00:26:36.875Z,5.93
2022-09-20T00:29:07.758Z,6.23
2022-09-20T00:31:40.200Z,6.53
2022-09-20T00:34:28.818Z,5.90
2022-09-20T00:36:57.494Z,6.43
2022-09-20T00:39:26.365Z,6.33
2022-09-20T00:41:55.108Z,6.07
2022-09-20T00:44:47.629Z,6.00
2022-09-20T00:47:22.989Z,5.20
2022-09-20T00:49:56.195Z,5.83
2022-09-20T00:52:26.718Z,5.80
2022-09-20T00:54:56.173Z,5.70
2022-09-20T00:57:25.349Z,6.20
2022-09-20T00:59:55.728Z,5.70
2022-09-20T01:02:28.859Z,5.80
2022-09-20T01:04:59.142Z,5.70
2022-09-20T01:07:29.734Z,5.57
2022-09-20T01:09:58.521Z,6.20
2022-09-20T01:12:31.318Z,5.90
2022-09-20T01:15:03.683Z,5.70
2022-09-20T01:17:35.457Z,5.80
2022-09-20T01:20:16.943Z,6.07
2022-09-20T01:23:01.083Z,6.00
2022-09-20T01:25:49.379Z,5.73
2022-09-20T01:28:20.006Z,6.07
2022-09-20T01:30:56.367Z,6.23
2022-09-20T01:33:31.294Z,5.87
2022-09-20T01:36:03.634Z,5.53
2022-09-20T01:38:41.259Z,5.53
2022-09-20T01:41:16.532Z,5.63
2022-09-20T01:43:52.243Z,5.60
2022-09-20T01:46:30.985Z,6.03
2022-09-20T01:49:11.549Z,5.63
2022-09-20T01:52:11.032Z,5.90
2022-09-20T01:55:19.922Z,5.43
2022-09-20T01:58:17.234Z,5.93
2022-09-20T02:01:04.318Z,5.63
2022-09-20T02:04:10.918Z,5.50
2022-09-20T02:06:56.913Z,6.10
2022-09-20T02:09:54.756Z,5.60
2022-09-20T02:12:42.258Z,5.87
2022-09-20T02:15:20.342Z,5.43
2022-09-20T02:17:59.858Z,6.00
2022-09-20T02:20:38.991Z,5.70
2022-09-20T02:23:18.127Z,5.60
2022-09-20T02:26:01.302Z,5.17
2022-09-20T02:28:44.169Z,5.50
2022-09-20T02:31:20.374Z,5.63
2022-09-20T02:34:20.169Z,5.70
2022-09-20T02:37:00.172Z,5.43
2022-09-20T02:39:37.058Z,5.43
2022-09-20T02:42:12.453Z,5.70
2022-09-20T02:44:54.338Z,5.50
2022-09-20T02:47:32.373Z,5.40
2022-09-20T02:50:14.914Z,5.27
2022-09-20T02:52:50.671Z,5.63
2022-09-20T02:55:25.240Z,5.77
2022-09-20T02:58:02.901Z,5.30
2022-09-20T03:00:41.974Z,5.50
2022-09-20T03:03:19.580Z,5.53
2022-09-20T03:06:01.221Z,5.80
2022-09-20T03:08:39.900Z,5.73
2022-09-20T03:11:16.911Z,5.70
2022-09-20T03:13:59.283Z,5.27
2022-09-20T03:16:37.505Z,5.73
2022-09-20T03:19:17.672Z,5.70
2022-09-20T03:21:57.034Z,5.90
2022-09-20T03:24:37.660Z,5.87
2022-09-20T03:27:14.920Z,5.33
2022-09-20T03:29:55.722Z,5.57
2022-09-20T03:32:39.522Z,5.77
2022-09-20T03:35:24.747Z,5.20
2022-09-20T03:38:15.994Z,5.43
2022-09-20T03:41:18.316Z,5.40
2022-09-20T03:44:03.529Z,5.27
2022-09-20T03:46:42.432Z,5.07
2022-09-20T03:49:42.027Z,5.10
2022-09-20T03:52:23.730Z,5.30
2022-09-20T03:55:34.142Z,5.83
2022-09-20T03:58:24.026Z,5.57
2022-09-20T04:01:07.993Z,5.20
2022-09-20T04:03:45.993Z,5.70
2022-09-20T04:06:44.234Z,5.63
2022-09-20T04:09:32.446Z,5.60
2022-09-20T04:12:08.953Z,5.70
2022-09-20T04:14:44.206Z,6.07
2022-09-20T04:17:28.422Z,5.50
2022-09-20T04:20:04.306Z,5.80
2022-09-20T04:22:33.658Z,5.57
2022-09-20T04:25:13.480Z,6.07
2022-09-20T04:27:48.341Z,5.63
2022-09-20T04:30:20.496Z,5.23
2022-09-20T04:32:57.359Z,5.77
2022-09-20T04:35:57.514Z,5.63
2022-09-20T04:38:28.202Z,5.47
2022-09-20T04:41:34.878Z,5.77
2022-09-20T04:44:27.826Z,5.77
2022-09-20T04:47:29.589Z,5.60
2022-09-20T04:50:28.432Z,5.87
2022-09-20T04:53:35.426Z,6.10
2022-09-20T04:56:17.858Z,6.10
2022-09-20T04:58:57.843Z,6.00
2022-09-20T05:02:17.688Z,6.30
2022-09-20T05:05:26.778Z,6.23
2022-09-20T05:08:30.130Z,6.37
2022-09-20T05:11:27.751Z,6.17
2022-09-20T05:17:31.810Z,6.43
2022-09-20T05:20:24.244Z,6.50
2022-09-20T05:23:24.741Z,6.63
2022-09-20T05:26:08.538Z,6.27
2022-09-20T05:28:49.536Z,6.50
2022-09-20T05:31:25.992Z,6.30
2022-09-20T05:34:02.242Z,6.50
2022-09-20T05:36:43.052Z,6.70
2022-09-20T05:39:29.794Z,7.37
2022-09-20T05:42:07.899Z,6.83
2022-09-20T05:44:51.819Z,6.30
2022-09-20T05:47:31.261Z,6.33
2022-09-20T05:50:12.826Z,6.43
2022-09-20T05:52:53.715Z,5.97
2022-09-20T05:55:47.762Z,6.37
2022-09-20T05:58:35.504Z,6.30
2022-09-20T06:01:10.863Z,5.90
2022-09-20T06:03:45.473Z,6.40
2022-09-20T06:06:21.598Z,5.93
2022-09-20T06:09:07.787Z,6.07
2022-09-20T06:11:52.541Z,5.60
2022-09-20T06:14:34.836Z,6.40
2022-09-20T06:17:15.184Z,6.33
2022-09-20T06:19:51.688Z,6.20
2022-09-20T06:22:25.794Z,6.40
2022-09-20T06:25:02.455Z,6.73
2022-09-20T06:27:38.927Z,6.70
2022-09-20T06:30:15.743Z,6.47
2022-09-20T06:32:59.166Z,6.20
2022-09-20T06:35:39.210Z,6.07
2022-09-20T06:38:43.946Z,5.97
2022-09-20T06:41:30.603Z,6.20
2022-09-20T06:44:01.859Z,6.17
2022-09-20T06:46:33.037Z,5.63
2022-09-20T06:49:02.501Z,6.07
2022-09-20T06:51:36.401Z,5.70
2022-09-20T06:54:06.907Z,5.67
2022-09-20T06:56:38.519Z,6.03
2022-09-20T06:59:08.487Z,5.30
2022-09-20T07:01:37.716Z,5.40
2022-09-20T07:04:07.300Z,4.97
2022-09-20T07:06:36.547Z,5.17
2022-09-20T07:09:06.723Z,4.80
2022-09-20T07:11:37.015Z,5.73
2022-09-20T07:14:07.835Z,5.67
2022-09-20T07:16:37.481Z,5.33
2022-09-20T07:19:07.002Z,5.03
2022-09-20T07:21:35.995Z,5.13
2022-09-20T07:24:05.127Z,5.20
2022-09-20T07:26:34.882Z,5.40
2022-09-20T07:29:06.846Z,4.73
2022-09-20T07:31:35.970Z,4.87
2022-09-20T07:34:04.978Z,4.50
2022-09-20T07:36:34.216Z,5.20
2022-09-20T07:39:03.180Z,4.80
2022-09-20T07:41:32.568Z,5.47
2022-09-20T07:44:20.836Z,5.27
2022-09-20T07:46:51.750Z,5.10
2022-09-20T07:49:21.820Z,5.17
2022-09-20T07:51:51.240Z,5.50
2022-09-20T07:54:20.803Z,4.90
2022-09-20T07:56:50.310Z,4.93
2022-09-20T07:59:19.457Z,4.83
2022-09-20T08:01:48.733Z,4.93
2022-09-20T08:04:19.132Z,5.37
2022-09-20T08:06:48.001Z,4.83
2022-09-20T08:09:17.095Z,5.07
2022-09-20T08:11:46.303Z,5.57
2022-09-20T08:14:16.955Z,5.23
2022-09-20T08:16:48.367Z,5.40
2022-09-20T08:19:20.793Z,5.23
2022-09-20T08:21:51.032Z,5.33
2022-09-20T08:24:19.842Z,5.20
2022-09-20T08:26:49.367Z,5.57
2022-09-20T08:29:18.314Z,5.57
2022-09-20T08:31:48.000Z,5.40
2022-09-20T08:34:18.767Z,5.27
2022-09-20T08:36:50.069Z,5.03
2022-09-20T08:42:15.498Z,4.83
2022-09-20T08:45:00.083Z,5.23
2022-09-20T08:47:32.157Z,5.20
2022-09-20T08:50:17.280Z,4.90
2022-09-20T08:52:49.469Z,5.20
2022-09-20T08:55:21.889Z,4.97
2022-09-20T08:57:53.831Z,4.50
2022-09-20T09:00:26.358Z,4.90
2022-09-20T09:02:57.239Z,4.90
2022-09-20T09:05:36.990Z,4.67
2022-09-20T09:08:16.202Z,5.10
2022-09-20T09:10:51.686Z,5.00
2022-09-20T09:13:26.098Z,5.03
2022-09-20T09:15:58.696Z,5.00
2022-09-20T09:18:34.983Z,5.00
2022-09-20T09:21:07.674Z,4.83
2022-09-20T09:23:42.458Z,5.17
2022-09-20T09:26:18.804Z,4.90
2022-09-20T09:28:48.827Z,4.63
2022-09-20T09:31:25.708Z,4.90
2022-09-20T09:33:55.883Z,4.57
2022-09-20T09:36:28.066Z,4.80
2022-09-20T09:39:17.247Z,5.10
2022-09-20T09:41:46.540Z,5.17
2022-09-20T09:44:29.193Z,5.07
2022-09-20T09:46:58.629Z,5.27
2022-09-20T09:49:30.233Z,5.40
2022-09-20T09:52:14.921Z,5.43
2022-09-20T09:54:49.082Z,4.83
2022-09-20T09:57:33.010Z,4.70
2022-09-20T10:00:22.692Z,4.97
2022-09-20T10:03:18.362Z,5.20
2022-09-20T10:06:04.055Z,4.97
2022-09-20T10:08:42.139Z,4.73
2022-09-20T10:11:24.387Z,4.37
2022-09-20T10:14:05.466Z,4.40
2022-09-20T10:16:47.849Z,4.70
2022-09-20T10:19:25.659Z,4.50
2022-09-20T10:22:02.209Z,4.20
2022-09-20T10:24:51.549Z,4.00
2022-09-20T10:27:34.813Z,4.40
2022-09-20T10:30:11.507Z,4.40
2022-09-20T10:32:51.442Z,4.67
2022-09-20T10:35:26.702Z,3.80
2022-09-20T10:38:21.757Z,4.50
2022-09-20T10:41:45.159Z,4.47
2022-09-20T10:44:39.648Z,4.20
2022-09-20T10:47:15.411Z,4.20
2022-09-20T10:49:57.354Z,4.60
2022-09-20T10:52:41.540Z,4.07
2022-09-20T10:55:31.122Z,4.20
2022-09-20T10:58:33.425Z,4.00
2022-09-20T11:01:07.824Z,4.00
2022-09-20T11:03:54.169Z,4.00
2022-09-20T11:06:33.671Z,3.87
2022-09-20T11:09:04.770Z,3.67
2022-09-20T11:11:38.422Z,3.90
2022-09-20T11:14:15.082Z,3.77
2022-09-20T11:16:49.966Z,3.70
2022-09-20T11:19:26.712Z,3.47
2022-09-20T11:22:04.482Z,3.60
2022-09-20T11:24:37.905Z,3.33
2022-09-20T11:27:13.590Z,3.50
2022-09-20T11:29:50.706Z,3.50
2022-09-20T11:32:24.303Z,3.70
2022-09-20T11:34:57.024Z,3.40
2022-09-20T11:37:31.855Z,3.20
2022-09-20T11:40:02.966Z,3.10
2022-09-20T11:42:35.369Z,3.73
2022-09-20T11:45:06.539Z,3.40
2022-09-20T11:47:54.561Z,3.20
2022-09-20T11:50:46.846Z,2.90
2022-09-20T11:53:27.434Z,2.37
2022-09-20T11:56:03.014Z,2.50
2022-09-20T11:58:33.369Z,2.50
2022-09-20T12:01:14.211Z,2.60
2022-09-20T12:03:50.869Z,2.50
2022-09-20T12:06:28.950Z,2.37
2022-09-20T12:09:00.355Z,2.40
2022-09-20T12:11:31.902Z,2.23
2022-09-20T12:14:05.791Z,1.67
2022-09-20T12:16:42.321Z,1.77
2022-09-20T12:19:13.978Z,1.30
2022-09-20T12:22:16.250Z,5.47
2022-09-20T12:24:45.769Z,4.90
2022-09-20T12:27:57.868Z,1.20
2022-09-20T12:30:28.050Z,1.03
2022-09-20T12:33:02.247Z,1.67
2022-09-20T12:36:02.416Z,1.67
2022-09-20T12:38:38.831Z,1.57
2022-09-20T12:41:14.158Z,1.70
2022-09-20T12:43:55.921Z,2.30
2022-09-20T12:46:32.596Z,2.30
2022-09-20T12:49:47.697Z,3.10
2022-09-20T12:52:57.398Z,2.90
2022-09-20T12:55:38.566Z,1.87
2022-09-20T12:58:24.386Z,1.80
2022-09-20T13:01:32.435Z,2.20
2022-09-20T13:04:53.787Z,2.20
2022-09-20T13:07:44.153Z,2.30
2022-09-20T13:10:29.261Z,2.57
2022-09-20T13:13:31.554Z,2.73
2022-09-20T13:16:05.635Z,3.00
2022-09-20T13:18:37.726Z,2.87
2022-09-20T13:21:09.493Z,3.07
2022-09-20T13:23:47.727Z,2.90
2022-09-20T13:26:20.997Z,3.10
2022-09-20T13:28:54.239Z,4.07
2022-09-20T13:31:29.556Z,3.07
2022-09-20T13:34:15.190Z,3.20
2022-09-20T13:36:46.510Z,3.20
2022-09-20T13:39:26.898Z,3.47
2022-09-20T13:42:02.230Z,3.20
2022-09-20T13:44:34.340Z,3.30
2022-09-20T13:47:22.257Z,3.40
2022-09-20T13:49:51.602Z,3.63
2022-09-20T13:52:27.459Z,3.70
2022-09-20T13:54:56.394Z,3.40
2022-09-20T13:57:28.847Z,3.73
2022-09-20T13:59:59.326Z,3.70
2022-09-20T14:02:31.555Z,3.30
2022-09-20T14:05:02.884Z,3.70
2022-09-20T14:07:36.447Z,3.50
2022-09-20T14:10:06.165Z,3.40
2022-09-20T14:12:35.850Z,3.70
2022-09-20T14:15:09.770Z,3.60
2022-09-20T14:17:39.196Z,3.60
2022-09-20T14:20:13.306Z,3.40
2022-09-20T14:22:45.094Z,3.43
2022-09-20T14:25:22.306Z,3.53
2022-09-20T14:28:07.062Z,3.43
2022-09-20T14:30:37.727Z,3.90
2022-09-20T14:33:13.707Z,3.90
2022-09-20T14:35:49.281Z,3.60
2022-09-20T14:38:24.386Z,3.80
2022-09-20T14:40:53.939Z,3.57
2022-09-20T14:43:27.231Z,4.10
2022-09-20T14:45:58.599Z,4.30
2022-09-20T14:48:34.463Z,3.77
2022-09-20T14:51:14.192Z,4.00
2022-09-20T14:53:45.195Z,4.07
2022-09-20T14:56:16.990Z,3.97
2022-09-20T14:59:06.758Z,3.77
2022-09-20T15:01:38.721Z,4.10
2022-09-20T15:04:10.633Z,3.83
2022-09-20T15:06:39.925Z,3.87
2022-09-20T15:09:13.584Z,3.70
2022-09-20T15:11:42.331Z,4.00
2022-09-20T15:14:11.187Z,3.63
2022-09-20T15:16:39.984Z,4.00
2022-09-20T15:19:10.699Z,3.83
2022-09-20T15:21:39.553Z,3.80
2022-09-20T15:24:08.582Z,3.57
2022-09-20T15:26:38.988Z,3.17
2022-09-20T15:29:09.150Z,4.50
2022-09-20T15:31:38.058Z,4.00
2022-09-20T15:34:07.492Z,3.40
2022-09-20T15:36:36.827Z,3.90
2022-09-20T15:39:05.889Z,3.77
2022-09-20T15:41:35.667Z,4.00
2022-09-20T15:44:06.566Z,4.00
2022-09-20T15:46:35.749Z,3.90
2022-09-20T15:49:06.622Z,3.93
2022-09-20T15:51:35.982Z,3.93
2022-09-20T15:54:07.748Z,3.63
2022-09-20T15:56:40.386Z,4.20
2022-09-20T15:59:13.239Z,4.20
2022-09-20T16:01:43.906Z,3.90
2022-09-20T16:04:14.293Z,4.60
2022-09-20T16:06:44.819Z,4.40
2022-09-20T16:09:14.445Z,4.50
2022-09-20T16:11:43.325Z,4.50
2022-09-20T16:14:13.430Z,4.23
2022-09-20T16:16:42.417Z,4.37
2022-09-20T16:19:23.664Z,4.53
2022-09-20T16:21:59.161Z,4.20
2022-09-20T16:24:29.816Z,4.03
2022-09-20T16:27:00.763Z,4.43
2022-09-20T16:29:32.026Z,4.23
2022-09-20T16:32:03.414Z,4.30
2022-09-20T16:34:33.866Z,4.07
2022-09-20T16:37:05.651Z,4.93
2022-09-20T16:39:34.728Z,5.60
2022-09-20T16:42:05.420Z,4.80
2022-09-20T16:44:37.384Z,5.30
2022-09-20T16:47:08.851Z,5.33
2022-09-20T16:49:37.897Z,4.60
2022-09-20T16:52:06.980Z,5.00
2022-09-20T16:54:35.993Z,4.37
2022-09-20T16:57:05.060Z,4.57
2022-09-20T16:59:35.156Z,4.67
2022-09-20T17:02:04.275Z,4.70
2022-09-20T17:04:33.422Z,4.87
2022-09-20T17:07:02.436Z,4.70
2022-09-20T17:09:31.594Z,4.70
2022-09-20T17:12:01.393Z,4.70
2022-09-20T17:14:30.592Z,4.60
2022-09-20T17:17:00.676Z,5.80
2022-09-20T17:19:29.858Z,5.80
2022-09-20T17:22:00.062Z,6.33
2022-09-20T17:24:30.136Z,5.63
2022-09-20T17:26:58.962Z,5.37
2022-09-20T17:29:27.993Z,5.27
2022-09-20T17:31:59.538Z,5.80
2022-09-20T17:34:31.623Z,5.43
2022-09-20T17:37:01.579Z,5.77
2022-09-20T17:39:30.354Z,5.80
2022-09-20T17:41:59.230Z,5.33
2022-09-20T17:44:29.190Z,5.90
2022-09-20T17:46:58.176Z,6.07
2022-09-20T17:49:27.671Z,6.03
2022-09-20T17:51:58.053Z,6.17
2022-09-20T17:54:27.975Z,6.43
2022-09-20T17:56:56.775Z,5.77
2022-09-20T17:59:26.077Z,5.80
2022-09-20T18:01:55.327Z,5.70
2022-09-20T18:04:25.195Z,6.53
2022-09-20T18:06:55.503Z,6.50
2022-09-20T18:09:27.266Z,6.30
2022-09-20T18:11:56.988Z,6.43
2022-09-20T18:14:28.313Z,6.80
2022-09-20T18:17:00.819Z,6.10
2022-09-20T18:19:32.916Z,6.60
2022-09-20T18:22:02.549Z,5.90
2022-09-20T18:24:33.206Z,6.63
2022-09-20T18:27:02.162Z,6.90
2022-09-20T18:29:36.768Z,6.93
2022-09-20T18:32:08.735Z,6.97
2022-09-20T18:34:38.427Z,6.67
2022-09-20T18:37:13.804Z,6.83
2022-09-20T18:39:44.628Z,7.10
2022-09-20T18:42:13.457Z,6.23
2022-09-20T18:44:43.883Z,6.70
2022-09-20T18:47:12.754Z,6.13
2022-09-20T18:49:41.386Z,6.57
2022-09-20T18:52:12.181Z,6.50
2022-09-20T18:54:40.971Z,6.43
2022-09-20T18:57:11.994Z,6.47
2022-09-20T18:59:53.466Z,7.03
2022-09-20T19:02:41.170Z,7.10
2022-09-20T19:05:19.074Z,6.50
2022-09-20T19:07:59.815Z,6.57
2022-09-20T19:10:39.118Z,7.67
2022-09-20T19:13:26.422Z,12.40
2022-09-20T19:16:18.544Z,8.60
2022-09-20T19:19:16.837Z,7.00
2022-09-20T19:21:56.573Z,6.07
2022-09-20T19:24:39.082Z,5.70
2022-09-20T19:27:11.726Z,6.00
2022-09-20T19:29:42.851Z,5.93
2022-09-20T19:32:17.163Z,6.00
2022-09-20T19:34:46.774Z,6.27
2022-09-20T19:37:24.800Z,5.90
2022-09-20T19:40:14.592Z,6.43
2022-09-20T19:42:54.706Z,6.23
2022-09-20T19:45:33.606Z,6.13
2022-09-20T19:48:09.078Z,6.30
2022-09-20T19:50:45.307Z,6.37
2022-09-20T19:53:15.477Z,6.37
2022-09-20T19:55:48.178Z,6.27
2022-09-20T19:58:17.644Z,6.20
2022-09-20T20:00:48.830Z,6.33
2022-09-20T20:03:19.132Z,6.50
2022-09-20T20:05:57.222Z,6.20
2022-09-20T20:08:35.903Z,10.87
2022-09-20T20:11:13.934Z,14.67
2022-09-20T20:14:07.183Z,9.40
2022-09-20T20:16:50.560Z,7.33
2022-09-20T20:19:52.906Z,9.23
2022-09-20T20:22:39.183Z,8.07
2022-09-20T20:25:20.242Z,7.77
2022-09-20T20:27:49.241Z,7.40
2022-09-20T20:30:19.318Z,7.97
2022-09-20T20:32:51.191Z,7.80
2022-09-20T20:35:23.322Z,7.77
2022-09-20T20:37:52.235Z,7.03
2022-09-20T20:40:21.465Z,8.07
2022-09-20T20:42:57.151Z,7.63
2022-09-20T20:45:26.684Z,7.97
2022-09-20T20:47:58.956Z,8.60
2022-09-20T20:50:29.351Z,7.80
2022-09-20T20:52:58.200Z,8.67
2022-09-20T20:55:27.159Z,8.80
2022-09-20T20:57:58.096Z,9.10
2022-09-20T21:00:27.786Z,9.20
2022-09-20T21:02:59.944Z,8.80
2022-09-20T21:05:29.439Z,8.40
2022-09-20T21:07:58.663Z,9.10
2022-09-20T21:10:27.738Z,8.97
2022-09-20T21:12:56.476Z,8.47
2022-09-20T21:15:25.286Z,8.17
2022-09-20T21:17:54.930Z,6.77
2022-09-20T21:20:25.859Z,7.13
2022-09-20T21:22:57.080Z,6.27
2022-09-20T21:25:25.915Z,6.63
2022-09-20T21:27:55.167Z,6.70
2022-09-20T21:30:24.470Z,6.53
2022-09-20T21:32:56.060Z,6.47
2022-09-20T21:35:26.588Z,6.60
2022-09-20T21:37:55.530Z,6.63
2022-09-20T21:40:25.419Z,5.90
2022-09-20T21:42:55.403Z,6.77
2022-09-20T21:45:29.455Z,7.23
2022-09-20T21:47:58.349Z,6.93
2022-09-20T21:50:29.033Z,6.40
2022-09-20T21:52:58.095Z,7.43
2022-09-20T21:55:27.309Z,8.57
2022-09-20T21:57:56.704Z,8.27
2022-09-20T22:00:27.237Z,8.17
2022-09-20T22:02:59.255Z,9.00
2022-09-20T22:05:29.774Z,9.10
2022-09-20T22:07:58.563Z,8.90
2022-09-20T22:10:27.798Z,8.93
2022-09-20T22:12:56.709Z,8.43
2022-09-20T22:15:25.796Z,8.70
2022-09-20T22:17:56.474Z,9.03
2022-09-20T22:20:25.510Z,9.47
2022-09-20T22:22:56.446Z,9.33
2022-09-20T22:25:25.638Z,8.40
2022-09-20T22:27:54.677Z,8.77
2022-09-20T22:30:24.392Z,8.50
2022-09-20T22:32:53.259Z,8.33
2022-09-20T22:35:22.678Z,8.33
2022-09-20T22:37:51.569Z,8.00
2022-09-20T22:40:22.201Z,8.33
2022-09-20T22:42:51.392Z,8.80
2022-09-20T22:45:20.369Z,8.50
2022-09-20T22:47:49.248Z,9.20
2022-09-20T22:50:18.323Z,8.27
2022-09-20T22:52:47.094Z,8.43
2022-09-20T22:55:16.176Z,8.73
2022-09-20T22:57:52.018Z,8.80
2022-09-20T23:00:21.027Z,8.60
2022-09-20T23:02:50.445Z,8.77
2022-09-20T23:05:19.348Z,8.70
2022-09-20T23:07:49.856Z,7.77
2022-09-20T23:10:18.862Z,8.77
2022-09-20T23:12:52.753Z,8.63
2022-09-20T23:15:21.939Z,8.30
2022-09-20T23:17:51.233Z,8.30
2022-09-20T23:20:20.126Z,7.77
2022-09-20T23:22:49.043Z,8.43
2022-09-20T23:25:18.228Z,8.13
2022-09-20T23:27:47.017Z,8.20
2022-09-20T23:30:17.371Z,8.50
2022-09-20T23:32:46.259Z,8.20
2022-09-20T23:35:15.403Z,8.37
2022-09-20T23:37:44.382Z,8.80
2022-09-20T23:40:14.371Z,8.17
2022-09-20T23:42:43.299Z,8.27
2022-09-20T23:45:13.211Z,8.30
2022-09-20T23:47:43.572Z,8.07
2022-09-20T23:50:14.207Z,8.03
2022-09-20T23:52:43.136Z,8.47
2022-09-20T23:55:12.006Z,8.40
2022-09-20T23:57:43.894Z,7.60
